Time;durP1;ratioP1;P1;durP2;ratioP2;P2;SDS_P1;SDS_P2;PMS_P1;PMS_P2;Temp;Humidity;BMP_temperature;BMP_pressure;BME280_temperature;BME280_humidity;BME280_pressure;Samples;Min_cycle;Max_cycle;Signal;HPM_P1;HPM_P2
2023/07/22 00:00:26;;;;;;;1.52;1.10;;;25.70;43.30;;;;;;5038655;28;20541;-64
2023/07/22 00:02:52;;;;;;;1.83;1.10;;;25.70;43.30;;;;;;5039747;28;20355;-65
2023/07/22 00:05:23;;;;;;;1.75;0.98;;;25.70;43.40;;;;;;5039580;28;20481;-64
2023/07/22 00:07:49;;;;;;;1.08;0.90;;;25.70;43.30;;;;;;5038017;28;20018;-64
2023/07/22 00:10:15;;;;;;;1.48;1.10;;;25.70;43.30;;;;;;5038549;28;20409;-63
2023/07/22 00:12:41;;;;;;;1.30;0.98;;;25.70;43.40;;;;;;5039012;28;20040;-63
2023/07/22 00:15:07;;;;;;;1.88;1.00;;;25.70;43.40;;;;;;5036837;28;20064;-63
2023/07/22 00:17:33;;;;;;;1.20;0.90;;;25.70;43.40;;;;;;5036832;28;20109;-64
2023/07/22 00:20:00;;;;;;;1.23;0.90;;;25.70;43.40;;;;;;5036788;28;20481;-63
2023/07/22 00:22:26;;;;;;;1.27;1.00;;;25.70;43.40;;;;;;5040549;28;20017;-64
2023/07/22 00:24:52;;;;;;;1.35;1.00;;;25.70;43.40;;;;;;5038658;28;20098;-62
2023/07/22 00:27:18;;;;;;;1.48;1.08;;;25.70;43.40;;;;;;5039287;28;20430;-64
2023/07/22 00:29:44;;;;;;;2.28;1.00;;;25.70;43.50;;;;;;5036084;28;20030;-64
2023/07/22 00:32:09;;;;;;;1.50;1.00;;;25.70;43.50;;;;;;5037151;28;20041;-63
2023/07/22 00:34:36;;;;;;;1.65;1.20;;;25.70;43.50;;;;;;5039558;28;20113;-64
2023/07/22 00:37:02;;;;;;;1.45;1.00;;;25.70;43.50;;;;;;5038588;28;20539;-63
2023/07/22 00:39:28;;;;;;;1.40;1.00;;;25.70;43.50;;;;;;5037573;28;20025;-64
2023/07/22 00:41:53;;;;;;;1.50;0.98;;;25.70;43.50;;;;;;5038416;28;20026;-64
2023/07/22 00:44:19;;;;;;;1.83;1.10;;;25.70;43.50;;;;;;5036693;28;20026;-64
2023/07/22 00:46:45;;;;;;;1.50;1.10;;;25.70;43.50;;;;;;5035362;28;20087;-62
2023/07/22 00:49:12;;;;;;;1.48;0.98;;;25.70;43.50;;;;;;5037427;28;20089;-63
2023/07/22 00:51:38;;;;;;;2.10;0.98;;;25.70;44.10;;;;;;5039776;28;20453;-63
2023/07/22 00:54:05;;;;;;;2.08;1.00;;;25.70;43.50;;;;;;5037987;28;20029;-64
2023/07/22 00:56:35;;;;;;;1.52;1.08;;;25.70;43.60;;;;;;5037974;28;20021;-64
2023/07/22 00:59:01;;;;;;;1.55;1.00;;;25.70;43.60;;;;;;5038568;28;20029;-64
2023/07/22 01:01:27;;;;;;;1.60;1.10;;;25.70;43.60;;;;;;5037331;28;20561;-64
2023/07/22 01:03:53;;;;;;;1.65;1.00;;;25.70;43.60;;;;;;5038038;28;20078;-64
2023/07/22 01:06:19;;;;;;;1.50;1.05;;;25.70;43.60;;;;;;5052865;28;20044;-64
2023/07/22 01:08:46;;;;;;;1.45;1.00;;;25.70;43.60;;;;;;5039667;28;20742;-63
2023/07/22 01:11:12;;;;;;;1.38;1.10;;;25.70;43.60;;;;;;5037888;28;20040;-63
2023/07/22 01:13:39;;;;;;;1.70;1.10;;;25.70;43.60;;;;;;5039136;28;20037;-64
2023/07/22 01:16:06;;;;;;;1.00;0.90;;;25.70;43.70;;;;;;5037051;28;20033;-64
2023/07/22 01:18:33;;;;;;;1.70;1.10;;;25.60;43.60;;;;;;5036938;28;20029;-64
2023/07/22 01:20:59;;;;;;;1.10;0.90;;;25.70;43.70;;;;;;5038059;28;20595;-63
2023/07/22 01:23:24;;;;;;;1.20;0.90;;;25.70;43.70;;;;;;5038646;28;20112;-63
2023/07/22 01:25:51;;;;;;;1.40;0.93;;;25.60;43.60;;;;;;5037679;28;20865;-63
2023/07/22 01:28:17;;;;;;;1.70;1.00;;;25.60;43.60;;;;;;5040002;28;20033;-64
2023/07/22 01:30:42;;;;;;;1.42;1.00;;;25.60;43.60;;;;;;5036019;28;20041;-62
2023/07/22 01:33:08;;;;;;;1.08;0.90;;;25.60;43.60;;;;;;5045094;28;20040;-64
2023/07/22 01:35:34;;;;;;;1.30;1.00;;;25.70;43.70;;;;;;5038741;28;20501;-64
2023/07/22 01:37:59;;;;;;;1.50;0.98;;;25.60;43.70;;;;;;5039143;28;20021;-63
2023/07/22 01:40:25;;;;;;;2.33;1.00;;;25.60;43.70;;;;;;5038604;28;20038;-64
2023/07/22 01:42:51;;;;;;;1.13;0.98;;;25.60;43.70;;;;;;5037747;28;20048;-63
2023/07/22 01:45:17;;;;;;;1.00;0.90;;;25.60;43.70;;;;;;5038978;28;20025;-63
2023/07/22 01:47:42;;;;;;;1.45;1.00;;;25.60;43.70;;;;;;5037401;28;20033;-64
2023/07/22 01:50:09;;;;;;;1.52;1.10;;;25.60;43.70;;;;;;5038550;28;20036;-64
2023/07/22 01:52:35;;;;;;;1.35;1.00;;;25.60;43.70;;;;;;5037700;28;20285;-64
2023/07/22 01:55:02;;;;;;;1.52;0.85;;;25.60;43.70;;;;;;5036906;28;20033;-63
2023/07/22 01:57:27;;;;;;;1.10;0.90;;;25.60;43.70;;;;;;5039697;28;20408;-64
2023/07/22 01:59:53;;;;;;;0.77;0.70;;;25.60;43.70;;;;;;5036141;28;20029;-63
2023/07/22 02:02:19;;;;;;;1.40;1.00;;;25.60;43.70;;;;;;5037543;28;20033;-63
2023/07/22 02:04:45;;;;;;;1.10;0.88;;;25.60;43.70;;;;;;5036875;28;20033;-65
2023/07/22 02:07:11;;;;;;;1.30;0.95;;;25.60;43.70;;;;;;5036755;28;20029;-64
2023/07/22 02:09:37;;;;;;;1.00;0.90;;;25.60;43.80;;;;;;5036988;28;20029;-63
2023/07/22 02:12:02;;;;;;;1.55;1.00;;;25.60;43.80;;;;;;5038914;28;20111;-64
2023/07/22 02:14:28;;;;;;;1.35;1.00;;;25.60;43.80;;;;;;5037766;28;20036;-63
2023/07/22 02:16:54;;;;;;;1.30;1.00;;;25.60;43.80;;;;;;5037402;28;20025;-63
2023/07/22 02:19:19;;;;;;;1.05;0.90;;;25.60;43.80;;;;;;5037235;28;20060;-63
2023/07/22 02:21:45;;;;;;;1.05;0.93;;;25.50;43.70;;;;;;5037701;28;20116;-63
2023/07/22 02:24:10;;;;;;;0.93;0.82;;;25.50;43.80;;;;;;5038090;28;20032;-62
2023/07/22 02:26:36;;;;;;;1.05;0.85;;;25.50;43.70;;;;;;5038146;28;20112;-63
2023/07/22 02:29:02;;;;;;;1.40;1.00;;;25.50;44.30;;;;;;5036606;28;20025;-64
2023/07/22 02:31:28;;;;;;;1.13;0.80;;;25.50;43.80;;;;;;5035460;28;20048;-63
2023/07/22 02:33:53;;;;;;;1.20;0.90;;;25.50;44.30;;;;;;5035823;28;20032;-63
2023/07/22 02:36:19;;;;;;;1.67;1.10;;;25.50;43.80;;;;;;5038800;28;20029;-63
2023/07/22 02:38:45;;;;;;;1.13;0.93;;;25.50;43.80;;;;;;5038210;28;20456;-62
2023/07/22 02:41:10;;;;;;;1.73;1.00;;;25.50;43.80;;;;;;5036480;28;20021;-63
2023/07/22 02:43:36;;;;;;;1.45;1.00;;;25.50;43.80;;;;;;5037623;28;20033;-62
2023/07/22 02:46:03;;;;;;;2.08;1.00;;;25.50;43.90;;;;;;5036492;28;20488;-63
2023/07/22 02:48:31;;;;;;;1.17;0.90;;;25.50;43.80;;;;;;5038819;28;20503;-63
2023/07/22 02:51:06;;;;;;;1.27;1.00;;;25.50;43.90;;;;;;5039818;28;20036;-63
2023/07/22 02:53:32;;;;;;;1.20;0.98;;;25.50;44.40;;;;;;5039807;28;20107;-63
2023/07/22 02:55:59;;;;;;;1.00;0.82;;;25.50;43.90;;;;;;5037758;28;20033;-63
2023/07/22 02:58:24;;;;;;;1.48;1.05;;;25.50;43.90;;;;;;5037419;28;20026;-62
2023/07/22 03:00:50;;;;;;;1.25;0.98;;;25.50;43.90;;;;;;5036818;28;20030;-63
2023/07/22 03:03:16;;;;;;;1.50;0.80;;;25.50;43.90;;;;;;5038309;28;20033;-64
2023/07/22 03:05:41;;;;;;;1.63;1.00;;;25.50;43.90;;;;;;5039240;28;20108;-63
2023/07/22 03:08:07;;;;;;;1.23;0.93;;;25.40;43.90;;;;;;5039341;28;20099;-63
2023/07/22 03:10:32;;;;;;;1.05;0.80;;;25.40;43.90;;;;;;5042077;28;20107;-62
2023/07/22 03:12:59;;;;;;;1.20;0.90;;;25.50;44.00;;;;;;5040153;28;20090;-63
2023/07/22 03:15:28;;;;;;;1.17;0.98;;;25.40;43.90;;;;;;5041954;28;20033;-63
2023/07/22 03:17:59;;;;;;;1.13;0.90;;;25.40;43.90;;;;;;5038932;28;20021;-63
2023/07/22 03:20:25;;;;;;;1.00;0.90;;;25.40;43.90;;;;;;5039507;28;20132;-62
2023/07/22 03:22:51;;;;;;;0.70;0.70;;;25.40;43.90;;;;;;5039673;28;20431;-63
2023/07/22 03:25:17;;;;;;;1.20;1.00;;;25.40;43.90;;;;;;5041618;28;20047;-63
2023/07/22 03:27:46;;;;;;;1.33;0.90;;;25.40;43.90;;;;;;5040529;28;20037;-62
2023/07/22 03:30:14;;;;;;;0.95;0.82;;;25.40;43.90;;;;;;5038910;28;20036;-63
2023/07/22 03:32:42;;;;;;;0.90;0.80;;;25.40;43.90;;;;;;5037438;28;20515;-63
2023/07/22 03:35:11;;;;;;;1.20;0.90;;;25.40;44.50;;;;;;5047778;28;20093;-63
2023/07/22 03:37:37;;;;;;;1.30;1.00;;;25.40;43.90;;;;;;5038658;28;20037;-62
2023/07/22 03:40:11;;;;;;;1.05;0.88;;;25.40;43.90;;;;;;5040392;28;20311;-62
2023/07/22 03:42:37;;;;;;;1.00;0.90;;;25.40;44.00;;;;;;5038257;28;20035;-63
2023/07/22 03:45:03;;;;;;;1.02;0.90;;;25.40;44.00;;;;;;5038341;28;20444;-64
2023/07/22 03:47:29;;;;;;;1.40;1.00;;;25.40;44.00;;;;;;5039224;28;20036;-63
2023/07/22 03:49:55;;;;;;;0.82;0.73;;;25.40;44.00;;;;;;5038058;28;20021;-63
2023/07/22 03:52:21;;;;;;;1.00;0.88;;;25.40;44.00;;;;;;5041443;28;20044;-63
2023/07/22 03:54:47;;;;;;;1.23;1.00;;;25.40;44.00;;;;;;5039733;28;21997;-63
2023/07/22 03:57:12;;;;;;;1.23;0.90;;;25.40;44.00;;;;;;5040636;28;20556;-63
2023/07/22 03:59:39;;;;;;;1.23;1.00;;;25.40;44.00;;;;;;5041020;28;20061;-62
2023/07/22 04:02:05;;;;;;;1.10;0.90;;;25.40;44.00;;;;;;5040977;28;20028;-63
2023/07/22 04:04:31;;;;;;;0.88;0.70;;;25.40;44.00;;;;;;5039397;28;20029;-62
2023/07/22 04:06:56;;;;;;;1.30;0.90;;;25.40;44.00;;;;;;5037555;28;20029;-63
2023/07/22 04:09:22;;;;;;;1.00;0.90;;;25.40;44.00;;;;;;5037016;28;20022;-63
2023/07/22 04:11:47;;;;;;;0.88;0.80;;;25.40;44.00;;;;;;5038700;28;20087;-63
2023/07/22 04:14:13;;;;;;;1.10;0.90;;;25.40;44.10;;;;;;5040193;28;20025;-63
2023/07/22 04:16:39;;;;;;;1.48;1.00;;;25.40;44.40;;;;;;5038762;28;20029;-63
2023/07/22 04:19:06;;;;;;;0.90;0.80;;;25.30;44.00;;;;;;5038453;28;20382;-64
2023/07/22 04:21:31;;;;;;;1.52;1.00;;;25.30;44.00;;;;;;5038983;28;20470;-63
2023/07/22 04:23:57;;;;;;;2.65;1.20;;;25.40;43.90;;;;;;5040384;28;20066;-63
2023/07/22 04:26:23;;;;;;;1.80;1.30;;;25.40;43.20;;;;;;5038720;28;20417;-63
2023/07/22 04:28:48;;;;;;;1.75;1.20;;;25.40;42.50;;;;;;5039287;28;20025;-62
2023/07/22 04:31:14;;;;;;;3.70;1.30;;;25.40;42.00;;;;;;5038892;28;20104;-62
2023/07/22 04:33:41;;;;;;;2.17;1.42;;;25.30;41.50;;;;;;5036120;28;20040;-63
2023/07/22 04:36:07;;;;;;;2.28;1.40;;;25.30;41.20;;;;;;5036824;28;20052;-62
2023/07/22 04:38:33;;;;;;;2.67;1.52;;;25.30;41.00;;;;;;5040427;28;20540;-64
2023/07/22 04:41:00;;;;;;;3.50;1.50;;;25.30;40.90;;;;;;5038693;28;20040;-62
2023/07/22 04:43:26;;;;;;;2.38;1.40;;;25.20;40.80;;;;;;5037988;28;20110;-62
2023/07/22 04:45:52;;;;;;;2.88;1.40;;;25.20;40.70;;;;;;5039680;28;20033;-63
2023/07/22 04:48:20;;;;;;;2.53;1.55;;;25.20;40.70;;;;;;5035453;28;20037;-62
2023/07/22 04:50:45;;;;;;;1.65;1.15;;;25.20;41.00;;;;;;5038598;28;20463;-62
2023/07/22 04:53:13;;;;;;;1.85;1.20;;;25.10;40.70;;;;;;5036443;28;20021;-63
2023/07/22 04:55:40;;;;;;;2.55;1.40;;;25.20;40.80;;;;;;5037657;28;20036;-63
2023/07/22 04:58:05;;;;;;;2.47;1.70;;;25.10;40.80;;;;;;5040100;28;20443;-63
2023/07/22 05:00:31;;;;;;;1.98;1.48;;;25.10;40.90;;;;;;5037817;28;20113;-62
2023/07/22 05:02:57;;;;;;;3.83;1.70;;;25.10;40.90;;;;;;5038388;28;20404;-62
2023/07/22 05:05:22;;;;;;;2.22;1.40;;;25.10;41.10;;;;;;5036728;28;20037;-62
2023/07/22 05:07:49;;;;;;;2.33;1.58;;;25.10;41.30;;;;;;5039823;28;20473;-63
2023/07/22 05:10:15;;;;;;;2.90;1.55;;;25.10;41.40;;;;;;5037252;28;20729;-62
2023/07/22 05:12:42;;;;;;;3.17;1.70;;;25.00;41.40;;;;;;5037603;28;20053;-62
2023/07/22 05:15:10;;;;;;;3.42;1.77;;;25.00;41.40;;;;;;5039772;28;20515;-61
2023/07/22 05:17:35;;;;;;;4.57;1.80;;;25.00;41.50;;;;;;5036678;28;20546;-63
2023/07/22 05:20:01;;;;;;;3.25;1.70;;;25.00;41.60;;;;;;5036781;28;20029;-63
2023/07/22 05:22:27;;;;;;;4.28;1.70;;;24.90;41.70;;;;;;5038366;28;20048;-63
2023/07/22 05:24:52;;;;;;;3.83;1.73;;;24.90;41.80;;;;;;5038545;28;20025;-63
2023/07/22 05:27:18;;;;;;;4.07;1.90;;;24.90;41.90;;;;;;5038592;28;20034;-62
2023/07/22 05:29:44;;;;;;;4.68;1.85;;;24.90;42.00;;;;;;5038959;28;20090;-62
2023/07/22 05:32:10;;;;;;;3.67;1.90;;;24.80;42.10;;;;;;5037779;28;20021;-62
2023/07/22 05:34:36;;;;;;;3.03;1.60;;;24.90;42.20;;;;;;5037910;28;20040;-63
2023/07/22 05:37:02;;;;;;;3.85;1.75;;;24.80;42.30;;;;;;5038605;28;20043;-62
2023/07/22 05:39:27;;;;;;;3.30;1.80;;;24.80;42.50;;;;;;5037312;28;20036;-63
2023/07/22 05:41:53;;;;;;;3.83;1.70;;;24.80;42.60;;;;;;5039567;28;20026;-62
2023/07/22 05:44:19;;;;;;;3.40;1.58;;;24.80;43.30;;;;;;5036308;28;20365;-62
2023/07/22 05:46:44;;;;;;;4.07;1.70;;;24.70;43.40;;;;;;5038293;28;20033;-62
2023/07/22 05:49:10;;;;;;;2.45;1.52;;;24.70;43.10;;;;;;5036208;28;20039;-63
2023/07/22 05:51:37;;;;;;;2.80;1.55;;;24.70;43.20;;;;;;5036590;28;20346;-63
2023/07/22 05:54:02;;;;;;;3.17;1.83;;;24.70;43.40;;;;;;5038574;28;20033;-62
2023/07/22 05:56:28;;;;;;;2.53;1.95;;;24.60;43.40;;;;;;5038348;28;20037;-62
2023/07/22 05:58:54;;;;;;;2.00;1.30;;;24.60;43.60;;;;;;5039966;28;20025;-62
2023/07/22 06:01:19;;;;;;;2.95;1.35;;;24.60;43.70;;;;;;5036573;28;20029;-62
2023/07/22 06:03:45;;;;;;;2.20;1.60;;;24.60;44.00;;;;;;5038536;28;20099;-62
2023/07/22 06:06:11;;;;;;;2.75;1.70;;;24.50;44.20;;;;;;5037655;28;20029;-62
2023/07/22 06:08:36;;;;;;;2.72;1.52;;;24.50;44.20;;;;;;5036387;28;20095;-62
2023/07/22 06:11:02;;;;;;;2.30;1.50;;;24.50;44.30;;;;;;5037008;28;20120;-62
2023/07/22 06:13:28;;;;;;;2.92;1.90;;;24.50;44.40;;;;;;5039750;28;20477;-62
2023/07/22 06:15:53;;;;;;;2.95;1.70;;;24.50;44.50;;;;;;5038780;28;20116;-62
2023/07/22 06:18:19;;;;;;;2.50;1.30;;;24.50;44.60;;;;;;5038161;28;20110;-62
2023/07/22 06:20:45;;;;;;;2.75;1.50;;;24.50;45.30;;;;;;5037744;28;20512;-63
2023/07/22 06:23:11;;;;;;;2.70;1.50;;;24.50;45.00;;;;;;5038165;28;20017;-62
2023/07/22 06:25:37;;;;;;;2.45;1.70;;;24.50;45.10;;;;;;5037793;28;20396;-62
2023/07/22 06:28:02;;;;;;;2.70;1.67;;;24.40;45.30;;;;;;5039021;28;20134;-62
2023/07/22 06:30:28;;;;;;;2.63;1.70;;;24.40;45.30;;;;;;5036185;28;20025;-63
2023/07/22 06:32:54;;;;;;;3.15;1.60;;;24.40;45.40;;;;;;5037126;28;20108;-63
2023/07/22 06:35:20;;;;;;;2.55;1.50;;;24.40;45.40;;;;;;5037574;28;20436;-63
2023/07/22 06:37:45;;;;;;;4.40;1.52;;;24.40;45.50;;;;;;5039533;28;20310;-62
2023/07/22 06:40:11;;;;;;;3.13;1.73;;;24.40;45.60;;;;;;5041444;28;20119;-62
2023/07/22 06:42:36;;;;;;;2.60;1.67;;;24.30;46.10;;;;;;5042482;28;20095;-62
2023/07/22 06:45:02;;;;;;;2.72;1.80;;;24.40;45.70;;;;;;5042139;28;20082;-63
2023/07/22 06:47:28;;;;;;;3.10;2.03;;;24.40;45.80;;;;;;5041334;28;20063;-62
2023/07/22 06:49:54;;;;;;;3.17;1.80;;;24.30;46.00;;;;;;5039501;28;20067;-63
2023/07/22 06:52:20;;;;;;;2.42;1.42;;;24.30;45.90;;;;;;5041752;28;20381;-62
2023/07/22 06:54:45;;;;;;;2.85;1.73;;;24.20;45.90;;;;;;5038785;28;20467;-62
2023/07/22 06:57:11;;;;;;;3.10;1.60;;;24.30;46.00;;;;;;5041256;28;20446;-63
2023/07/22 06:59:37;;;;;;;2.63;1.73;;;24.30;46.10;;;;;;5039708;28;20028;-62
2023/07/22 07:02:05;;;;;;;2.40;1.50;;;24.30;46.20;;;;;;5041363;28;20103;-63
2023/07/22 07:04:31;;;;;;;2.47;1.48;;;24.20;46.20;;;;;;5039721;28;20500;-62
2023/07/22 07:06:57;;;;;;;2.10;1.50;;;24.20;46.30;;;;;;5041750;28;20025;-63
2023/07/22 07:09:22;;;;;;;2.40;1.80;;;24.20;46.50;;;;;;5042526;28;20044;-62
2023/07/22 07:11:48;;;;;;;2.88;1.58;;;24.20;46.60;;;;;;5040585;28;20543;-63
2023/07/22 07:14:13;;;;;;;2.13;1.40;;;24.20;46.70;;;;;;5040017;28;20029;-63
2023/07/22 07:16:39;;;;;;;4.18;2.10;;;24.20;46.70;;;;;;5041018;28;20060;-64
2023/07/22 07:19:05;;;;;;;3.25;1.70;;;24.20;46.90;;;;;;5038663;28;20044;-63
2023/07/22 07:21:30;;;;;;;2.53;1.50;;;24.20;47.00;;;;;;5040915;28;20036;-63
2023/07/22 07:23:57;;;;;;;2.20;1.45;;;24.10;46.90;;;;;;5041321;28;20029;-63
2023/07/22 07:26:23;;;;;;;2.58;1.42;;;24.10;47.00;;;;;;5041254;28;20064;-62
2023/07/22 07:28:50;;;;;;;2.65;1.60;;;24.10;47.00;;;;;;5041474;28;20954;-61
2023/07/22 07:31:17;;;;;;;2.78;1.70;;;24.10;47.20;;;;;;5039473;28;20083;-61
2023/07/22 07:33:42;;;;;;;2.85;1.70;;;24.10;47.40;;;;;;5039930;28;20034;-60
2023/07/22 07:36:08;;;;;;;2.90;1.50;;;24.10;47.40;;;;;;5040100;28;20025;-61
2023/07/22 07:38:33;;;;;;;2.60;1.55;;;24.10;47.40;;;;;;5040114;28;20060;-61
2023/07/22 07:41:02;;;;;;;4.00;1.50;;;24.00;47.20;;;;;;5040374;28;20023;-61
2023/07/22 07:43:27;;;;;;;2.20;1.40;;;24.10;47.30;;;;;;5040201;28;20442;-61
2023/07/22 07:46:13;;;;;;;2.05;1.33;;;24.00;47.30;;;;;;5042339;28;20032;-62
2023/07/22 07:48:39;;;;;;;2.42;1.27;;;24.00;47.50;;;;;;5039127;28;20509;-61
2023/07/22 07:51:04;;;;;;;2.10;1.40;;;24.00;47.40;;;;;;5039284;28;20090;-61
2023/07/22 07:53:30;;;;;;;2.63;1.42;;;24.00;47.40;;;;;;5040715;28;20025;-60
2023/07/22 07:55:56;;;;;;;1.73;1.15;;;24.00;47.40;;;;;;5039208;28;20373;-61
2023/07/22 07:58:21;;;;;;;1.65;1.13;;;23.90;47.20;;;;;;5040718;28;20098;-61
2023/07/22 08:00:47;;;;;;;1.98;1.10;;;24.00;47.20;;;;;;5039760;28;20028;-61
2023/07/22 08:03:12;;;;;;;1.88;1.10;;;24.00;47.10;;;;;;5039821;28;20079;-61
2023/07/22 08:05:39;;;;;;;1.63;1.15;;;24.00;47.10;;;;;;5036692;28;20361;-61
2023/07/22 08:08:04;;;;;;;2.33;1.25;;;24.00;47.00;;;;;;5039983;28;20025;-61
2023/07/22 08:10:30;;;;;;;1.58;1.10;;;24.00;47.00;;;;;;5038949;28;20156;-61
2023/07/22 08:12:56;;;;;;;1.60;1.10;;;24.00;46.90;;;;;;5038421;28;20102;-61
2023/07/22 08:15:21;;;;;;;2.28;1.40;;;24.00;46.90;;;;;;5039144;28;20453;-61
2023/07/22 08:17:47;;;;;;;1.73;1.10;;;24.00;46.80;;;;;;5039369;28;20041;-61
2023/07/22 08:20:13;;;;;;;1.70;1.13;;;24.00;46.80;;;;;;5038559;28;20492;-62
2023/07/22 08:22:38;;;;;;;1.65;1.08;;;24.00;46.80;;;;;;5039567;28;20136;-61
2023/07/22 08:25:04;;;;;;;1.60;1.10;;;24.00;46.70;;;;;;5039443;28;20067;-61
2023/07/22 08:27:30;;;;;;;2.22;1.27;;;24.00;46.70;;;;;;5040888;28;20029;-61
2023/07/22 08:29:55;;;;;;;1.55;1.10;;;24.00;46.60;;;;;;5041436;28;20028;-61
2023/07/22 08:32:21;;;;;;;1.52;1.10;;;24.00;46.60;;;;;;5039858;28;20608;-61
2023/07/22 08:34:47;;;;;;;1.60;1.10;;;24.00;46.60;;;;;;5039899;28;20052;-62
2023/07/22 08:37:12;;;;;;;1.98;1.10;;;24.00;46.60;;;;;;5037960;28;20071;-62
2023/07/22 08:39:38;;;;;;;1.20;1.00;;;24.00;46.50;;;;;;5039805;28;20032;-62
2023/07/22 08:42:05;;;;;;;1.67;1.20;;;24.10;46.50;;;;;;5039233;28;20075;-61
2023/07/22 08:44:35;;;;;;;2.00;1.20;;;24.00;46.50;;;;;;5040348;28;20762;-62
2023/07/22 08:47:03;;;;;;;1.55;1.10;;;24.10;46.50;;;;;;5040082;28;20079;-61
2023/07/22 08:49:30;;;;;;;1.55;1.05;;;24.10;46.50;;;;;;5040724;28;20049;-62
2023/07/22 08:51:57;;;;;;;1.63;1.15;;;24.10;46.40;;;;;;5039111;28;20412;-61
2023/07/22 08:54:23;;;;;;;1.08;0.90;;;24.10;46.40;;;;;;5038973;28;20037;-61
2023/07/22 08:56:50;;;;;;;2.05;1.10;;;24.00;46.30;;;;;;5039593;28;20440;-61
2023/07/22 08:59:18;;;;;;;1.75;1.10;;;24.10;46.90;;;;;;5039260;28;20424;-62
2023/07/22 09:01:45;;;;;;;1.10;1.00;;;24.10;46.30;;;;;;5037155;28;20021;-61
2023/07/22 09:04:11;;;;;;;1.33;0.90;;;24.10;46.30;;;;;;5037490;28;20025;-60
2023/07/22 09:06:37;;;;;;;1.58;1.00;;;24.10;46.20;;;;;;5036967;28;20118;-62
2023/07/22 09:09:07;;;;;;;1.85;1.10;;;24.10;46.20;;;;;;5037520;28;20087;-61
2023/07/22 09:11:33;;;;;;;1.92;1.20;;;24.10;46.20;;;;;;5038594;28;20024;-62
2023/07/22 09:14:01;;;;;;;1.38;1.00;;;24.10;46.20;;;;;;5035267;28;20076;-62
2023/07/22 09:16:27;;;;;;;1.00;0.90;;;24.10;46.10;;;;;;5037372;28;20048;-62
2023/07/22 09:18:57;;;;;;;1.73;1.10;;;24.10;46.10;;;;;;5037469;28;20029;-61
2023/07/22 09:21:23;;;;;;;1.40;0.95;;;24.10;46.10;;;;;;5038017;28;20022;-62
2023/07/22 09:23:49;;;;;;;1.33;1.00;;;24.10;46.10;;;;;;5039161;28;20029;-62
2023/07/22 09:26:16;;;;;;;1.63;1.00;;;24.10;46.10;;;;;;5037573;28;20144;-62
2023/07/22 09:28:48;;;;;;;1.30;0.90;;;24.10;46.10;;;;;;5038694;28;20120;-61
2023/07/22 09:31:13;;;;;;;1.70;0.98;;;24.10;46.00;;;;;;5038858;28;20033;-61
2023/07/22 09:33:39;;;;;;;1.90;1.10;;;24.10;46.00;;;;;;5039114;28;20482;-62
2023/07/22 09:36:05;;;;;;;1.40;1.10;;;24.10;46.00;;;;;;5037298;28;20017;-61
2023/07/22 09:38:30;;;;;;;1.73;1.10;;;24.10;46.00;;;;;;5038326;28;20528;-62
2023/07/22 09:40:56;;;;;;;1.60;1.08;;;24.10;45.90;;;;;;5038349;28;20060;-62
2023/07/22 09:43:23;;;;;;;1.83;1.10;;;24.10;45.90;;;;;;5038782;28;20503;-62
2023/07/22 09:45:49;;;;;;;1.60;1.10;;;24.10;45.90;;;;;;5038003;28;20431;-62
2023/07/22 09:48:15;;;;;;;1.48;1.05;;;24.10;45.80;;;;;;5038626;28;20440;-61
2023/07/22 09:50:41;;;;;;;1.98;1.10;;;24.10;45.80;;;;;;5038389;28;20481;-62
2023/07/22 09:53:07;;;;;;;1.48;1.00;;;24.10;45.80;;;;;;5036840;28;20039;-62
2023/07/22 09:55:34;;;;;;;1.85;1.30;;;24.10;45.80;;;;;;5038301;28;20520;-61
2023/07/22 09:58:02;;;;;;;1.40;0.95;;;24.10;45.80;;;;;;5040512;28;20036;-61
2023/07/22 10:00:33;;;;;;;1.50;1.00;;;24.20;45.80;;;;;;5036277;28;20029;-62
2023/07/22 10:03:00;;;;;;;1.52;0.90;;;24.20;45.80;;;;;;5037411;28;20048;-62
2023/07/22 10:05:28;;;;;;;1.48;1.00;;;24.20;45.80;;;;;;5037626;28;20033;-62
2023/07/22 10:07:58;;;;;;;1.55;1.00;;;24.20;45.80;;;;;;5052204;28;20490;-62
2023/07/22 10:10:31;;;;;;;1.02;0.88;;;24.20;45.70;;;;;;5036243;28;20120;-62
2023/07/22 10:12:57;;;;;;;1.38;0.93;;;24.20;45.70;;;;;;5041173;28;20104;-61
2023/07/22 10:15:29;;;;;;;1.30;0.90;;;24.20;45.70;;;;;;5043116;28;20454;-64
2023/07/22 10:17:56;;;;;;;1.67;1.00;;;24.20;45.70;;;;;;5041595;28;20559;-65
2023/07/22 10:20:23;;;;;;;1.88;1.00;;;24.20;46.20;;;;;;5040312;28;20930;-64
2023/07/22 10:22:49;;;;;;;1.33;0.80;;;24.20;45.70;;;;;;5040851;28;20057;-64
2023/07/22 10:25:16;;;;;;;1.80;1.00;;;24.20;45.70;;;;;;5042859;28;20594;-64
2023/07/22 10:27:43;;;;;;;1.88;1.00;;;24.20;45.80;;;;;;5043701;28;20025;-64
2023/07/22 10:30:11;;;;;;;1.55;1.13;;;24.20;45.80;;;;;;5040458;28;20033;-64
2023/07/22 10:32:41;;;;;;;1.30;1.00;;;24.20;45.80;;;;;;5040234;28;20073;-64
2023/07/22 10:35:12;;;;;;;1.00;0.80;;;24.30;45.90;;;;;;5043226;28;20439;-64
2023/07/22 10:37:41;;;;;;;1.50;1.00;;;24.30;46.00;;;;;;5039421;28;20368;-64
2023/07/22 10:40:19;;;;;;;;;;;24.20;46.20;;;;;;5043452;28;20036;-64
2023/07/22 10:43:02;;;;;;;1.77;1.10;;;24.30;46.10;;;;;;5045420;28;19908;-64
2023/07/22 10:45:33;;;;;;;1.90;1.20;;;24.30;46.20;;;;;;5041742;28;20555;-64
2023/07/22 10:48:06;;;;;;;1.55;1.13;;;24.40;46.10;;;;;;5041349;28;20029;-65
2023/07/22 10:50:49;;;;;;;2.92;1.10;;;24.40;45.90;;;;;;5041216;28;20027;-64
2023/07/22 10:53:29;;;;;;;1.70;1.20;;;24.50;45.90;;;;;;5038740;28;20029;-64
2023/07/22 10:56:12;;;;;;;3.50;1.30;;;24.50;45.80;;;;;;5039151;28;20044;-65
2023/07/22 10:58:46;;;;;;;2.35;1.00;;;24.50;45.70;;;;;;5041113;28;20020;-65
2023/07/22 11:01:29;;;;;;;1.98;1.20;;;24.60;45.70;;;;;;5042098;28;20584;-65
2023/07/22 11:04:13;;;;;;;1.88;1.30;;;24.60;45.60;;;;;;5041494;28;20026;-65
2023/07/22 11:07:00;;;;;;;2.00;1.23;;;24.60;45.60;;;;;;5038698;28;20030;-65
2023/07/22 11:09:34;;;;;;;1.35;1.10;;;24.60;45.70;;;;;;5041630;28;20029;-64
2023/07/22 11:12:18;;;;;;;1.45;1.00;;;24.60;45.60;;;;;;5041423;28;20037;-64
2023/07/22 11:14:50;;;;;;;1.45;0.98;;;24.60;45.50;;;;;;5040085;28;20481;-64
2023/07/22 11:17:17;;;;;;;1.58;0.90;;;24.60;45.50;;;;;;5043665;28;20091;-65
2023/07/22 11:19:44;;;;;;;1.27;1.00;;;24.60;45.50;;;;;;5040144;28;20497;-64
2023/07/22 11:22:10;;;;;;;1.70;1.00;;;24.60;45.50;;;;;;5039585;28;20503;-65
2023/07/22 11:24:36;;;;;;;1.00;0.90;;;24.60;45.50;;;;;;5038325;28;20048;-64
2023/07/22 11:27:06;;;;;;;1.77;0.90;;;24.60;45.50;;;;;;5041483;28;20103;-65
2023/07/22 11:29:33;;;;;;;1.13;0.90;;;24.60;45.50;;;;;;5042920;28;20060;-65
2023/07/22 11:31:59;;;;;;;1.02;0.90;;;24.60;45.40;;;;;;5042419;28;20032;-65
2023/07/22 11:34:25;;;;;;;1.15;1.00;;;24.60;45.40;;;;;;5041053;28;20025;-65
2023/07/22 11:36:52;;;;;;;1.30;1.02;;;24.60;45.40;;;;;;5039346;28;20036;-64
2023/07/22 11:39:20;;;;;;;1.15;0.93;;;24.60;45.90;;;;;;5039362;28;20036;-65
2023/07/22 11:41:47;;;;;;;1.75;1.10;;;24.60;45.30;;;;;;5040466;28;20026;-65
2023/07/22 11:44:16;;;;;;;1.50;0.90;;;24.60;45.30;;;;;;5040043;28;20030;-65
2023/07/22 11:47:03;;;;;;;0.80;0.75;;;24.60;45.30;;;;;;5039046;28;20370;-65
2023/07/22 11:49:39;;;;;;;2.00;0.95;;;24.60;45.20;;;;;;5040126;28;20041;-64
2023/07/22 11:52:05;;;;;;;1.10;0.95;;;24.60;45.20;;;;;;5036996;28;20028;-65
2023/07/22 11:54:36;;;;;;;2.00;1.00;;;24.70;45.20;;;;;;5039079;28;20473;-65
2023/07/22 11:57:14;;;;;;;1.83;1.00;;;24.70;45.20;;;;;;5044950;28;20607;-65
2023/07/22 11:59:47;;;;;;;1.67;1.17;;;24.60;45.30;;;;;;5042413;28;20915;-65
2023/07/22 12:02:14;;;;;;;1.48;1.10;;;24.70;45.20;;;;;;5043984;28;20036;-65
2023/07/22 12:04:40;;;;;;;1.40;1.10;;;24.80;45.20;;;;;;5042327;28;20774;-65
2023/07/22 12:07:05;;;;;;;2.03;1.00;;;24.80;45.10;;;;;;5041126;28;20128;-66
2023/07/22 12:09:31;;;;;;;1.85;1.05;;;24.80;45.00;;;;;;5039263;28;20384;-66
2023/07/22 12:11:59;;;;;;;3.13;1.10;;;24.80;44.90;;;;;;5040540;28;20492;-66
2023/07/22 12:14:33;;;;;;;1.80;1.30;;;24.90;45.10;;;;;;5038459;28;20022;-66
2023/07/22 12:16:59;;;;;;;1.63;1.27;;;24.90;45.10;;;;;;5040817;28;20025;-66
2023/07/22 12:19:27;;;;;;;1.92;1.10;;;24.90;45.50;;;;;;5039113;28;20029;-66
2023/07/22 12:21:52;;;;;;;1.60;1.10;;;24.90;45.00;;;;;;5038119;28;20394;-65
2023/07/22 12:24:18;;;;;;;1.75;1.02;;;25.00;45.00;;;;;;5041622;28;20025;-66
2023/07/22 12:26:44;;;;;;;2.88;1.30;;;25.00;45.00;;;;;;5041170;28;20152;-64
2023/07/22 12:29:09;;;;;;;1.35;1.00;;;25.00;45.00;;;;;;5040011;28;20051;-64
2023/07/22 12:31:35;;;;;;;1.83;1.27;;;25.10;45.10;;;;;;5039365;28;20033;-64
2023/07/22 12:34:00;;;;;;;1.80;1.10;;;25.10;45.10;;;;;;5043031;28;20099;-64
2023/07/22 12:36:26;;;;;;;1.85;1.20;;;25.10;45.00;;;;;;5041216;28;20042;-64
2023/07/22 12:38:52;;;;;;;2.10;1.00;;;25.10;44.90;;;;;;5039166;28;20477;-62
2023/07/22 12:41:17;;;;;;;1.40;1.00;;;25.10;45.10;;;;;;5041928;28;20025;-62
2023/07/22 12:43:44;;;;;;;1.67;1.10;;;25.10;45.00;;;;;;5040872;28;20112;-61
2023/07/22 12:46:09;;;;;;;1.58;1.10;;;25.10;45.00;;;;;;5042095;28;20037;-62